Time;durP1;ratioP1;P1;durP2;ratioP2;P2;SDS_P1;SDS_P2;PMS_P1;PMS_P2;Temp;Humidity;BMP_temperature;BMP_pressure;BME280_temperature;BME280_humidity;BME280_pressure;Samples;Min_cycle;Max_cycle;Signal;HPM_P1;HPM_P2
2022/06/19 00:00:42;;;;;;;13.80;9.90;;;;;;;23.12;100.00;100879.17;1684346;84;21076;-71
2022/06/19 00:03:18;;;;;;;16.15;10.80;;;;;;;23.03;100.00;100880.50;1685233;84;21008;-72
2022/06/19 00:05:45;;;;;;;13.98;10.35;;;;;;;23.08;100.00;100886.99;1679739;85;21044;-72
2022/06/19 00:08:12;;;;;;;14.33;10.60;;;;;;;23.16;100.00;100877.11;1646216;86;21520;-72
2022/06/19 00:10:41;;;;;;;15.55;10.13;;;;;;;23.13;100.00;100880.81;1676228;84;21528;-72
2022/06/19 00:13:08;;;;;;;12.43;10.10;;;;;;;23.05;100.00;100881.19;1688083;83;21150;-72
2022/06/19 00:15:35;;;;;;;11.63;10.00;;;;;;;23.01;100.00;100884.53;1653058;86;21072;-72
2022/06/19 00:18:04;;;;;;;13.08;10.50;;;;;;;23.02;100.00;100881.48;1683733;84;21082;-73
2022/06/19 00:20:31;;;;;;;11.22;10.05;;;;;;;23.06;100.00;100887.61;1655274;86;21064;-72
2022/06/19 00:22:58;;;;;;;12.07;10.15;;;;;;;23.03;100.00;100887.88;1630806;87;21031;-73
2022/06/19 00:25:26;;;;;;;14.50;11.30;;;;;;;23.03;100.00;100891.82;1626464;87;21090;-72
2022/06/19 00:27:54;;;;;;;17.62;12.33;;;;;;;22.96;100.00;100888.08;1629135;86;21127;-72
2022/06/19 00:30:23;;;;;;;12.37;10.23;;;;;;;22.79;100.00;100897.48;1688559;84;21129;-72
2022/06/19 00:32:52;;;;;;;13.95;9.85;;;;;;;22.59;100.00;100893.52;1650842;86;21080;-72
2022/06/19 00:35:19;;;;;;;11.38;9.88;;;;;;;22.62;100.00;100898.97;1682029;84;21067;-72
2022/06/19 00:37:47;;;;;;;15.35;10.55;;;;;;;22.59;100.00;100900.08;1683017;84;21040;-72
2022/06/19 00:40:14;;;;;;;13.62;10.88;;;;;;;22.69;100.00;100901.87;1681917;84;21048;-72
2022/06/19 00:42:42;;;;;;;14.30;9.88;;;;;;;22.78;100.00;100897.13;1649024;86;21036;-72
2022/06/19 00:45:37;;;;;;;14.25;10.18;;;;;;;22.85;100.00;100900.87;1679513;84;21004;-72
2022/06/19 00:48:12;;;;;;;12.95;9.63;;;;;;;22.77;100.00;100894.98;1680995;84;21563;-72
2022/06/19 00:50:41;;;;;;;11.35;9.68;;;;;;;22.74;100.00;100901.81;1681894;84;21051;-71
2022/06/19 00:53:12;;;;;;;10.90;9.60;;;;;;;22.66;100.00;100900.84;1681645;84;21083;-71
2022/06/19 00:55:44;;;;;;;10.90;9.40;;;;;;;22.51;100.00;100897.31;1680991;85;21024;-72
2022/06/19 00:58:24;;;;;;;12.13;9.90;;;;;;;22.63;100.00;100900.64;1682984;84;21303;-73
2022/06/19 01:00:55;;;;;;;10.93;9.48;;;;;;;22.58;100.00;100902.83;1679204;84;21048;-73
2022/06/19 01:03:33;;;;;;;11.05;9.55;;;;;;;22.56;100.00;100906.89;1649378;86;21021;-73
2022/06/19 01:06:01;;;;;;;12.07;9.80;;;;;;;22.48;100.00;100906.75;1649143;86;21092;-73
2022/06/19 01:08:30;;;;;;;13.80;9.88;;;;;;;22.29;100.00;100900.16;1647163;86;21040;-72
2022/06/19 01:10:59;;;;;;;13.75;9.78;;;;;;;22.28;100.00;100903.73;1679663;83;21056;-72
2022/06/19 01:13:30;;;;;;;13.48;9.80;;;;;;;22.33;100.00;100908.11;1679818;84;21071;-73
2022/06/19 01:16:00;;;;;;;12.18;9.75;;;;;;;22.30;100.00;100909.19;1680861;84;21090;-73
2022/06/19 01:18:34;;;;;;;12.15;9.80;;;;;;;22.30;99.39;100913.12;1682452;84;21084;-73
2022/06/19 01:21:07;;;;;;;10.85;9.75;;;;;;;22.09;99.66;100906.62;1684297;84;21012;-73
2022/06/19 01:23:51;;;;;;;12.15;9.80;;;;;;;22.03;100.00;100909.77;1672795;84;21056;-72
2022/06/19 01:26:21;;;;;;;11.03;9.48;;;;;;;22.10;100.00;100907.44;1678533;84;21044;-73
2022/06/19 01:28:56;;;;;;;12.60;9.65;;;;;;;22.01;100.00;100911.20;1682548;84;21555;-72
2022/06/19 01:31:37;;;;;;;11.68;9.45;;;;;;;21.93;100.00;100907.59;1682588;84;21619;-72
2022/06/19 01:34:27;;;;;;;11.65;10.13;;;;;;;21.74;100.00;100910.96;1677048;84;21040;-72
2022/06/19 01:37:17;;;;;;;12.10;10.08;;;;;;;21.91;100.00;100909.52;1667855;84;21543;-73
2022/06/19 01:39:53;;;;;;;12.95;9.75;;;;;;;21.84;100.00;100909.67;1654007;86;21411;-73
2022/06/19 01:42:21;;;;;;;12.18;10.03;;;;;;;21.85;100.00;100910.86;1624255;87;21048;-72
2022/06/19 01:44:53;;;;;;;10.93;9.20;;;;;;;21.86;100.00;100913.84;1686476;84;21031;-72
2022/06/19 01:47:27;;;;;;;11.22;9.93;;;;;;;21.88;100.00;100917.17;1695454;84;21087;-72
2022/06/19 01:49:56;;;;;;;14.60;9.53;;;;;;;22.01;100.00;100916.45;1691946;83;21089;-72
2022/06/19 01:52:26;;;;;;;14.95;10.30;;;;;;;22.00;100.00;100915.30;1692189;84;20996;-72
2022/06/19 01:54:58;;;;;;;12.68;9.70;;;;;;;21.97;100.00;100913.73;1638239;86;21043;-72
2022/06/19 01:57:27;;;;;;;11.63;9.75;;;;;;;21.93;100.00;100912.83;1677858;85;21079;-72
2022/06/19 01:59:55;;;;;;;14.03;10.40;;;;;;;21.93;100.00;100911.52;1673203;85;21005;-72
2022/06/19 02:02:23;;;;;;;15.25;10.05;;;;;;;21.92;100.00;100915.94;1635055;86;21619;-71
2022/06/19 02:04:51;;;;;;;11.65;10.40;;;;;;;21.86;100.00;100922.16;1689438;83;21690;-71
2022/06/19 02:07:24;;;;;;;14.38;10.48;;;;;;;21.74;100.00;100922.27;1648858;86;21076;-71
2022/06/19 02:09:51;;;;;;;12.45;10.63;;;;;;;21.74;100.00;100921.45;1679417;84;21048;-71
2022/06/19 02:12:19;;;;;;;12.55;10.43;;;;;;;21.85;100.00;100925.27;1680765;84;21020;-71
2022/06/19 02:14:49;;;;;;;13.10;10.20;;;;;;;21.86;99.87;100926.09;1689545;83;21107;-71
2022/06/19 02:17:34;;;;;;;13.45;10.45;;;;;;;22.04;98.87;100924.55;1651810;87;21068;-71
2022/06/19 02:20:10;;;;;;;13.80;9.83;;;;;;;22.10;97.82;100923.17;1628919;87;21562;-72
2022/06/19 02:22:38;;;;;;;13.18;9.65;;;;;;;21.93;98.20;100929.38;1625065;87;21012;-72
2022/06/19 02:25:07;;;;;;;12.18;9.53;;;;;;;21.94;98.21;100927.61;1630333;87;21573;-72
2022/06/19 02:27:36;;;;;;;11.93;10.40;;;;;;;21.74;98.47;100930.12;1681854;84;21126;-72
2022/06/19 02:30:07;;;;;;;12.30;9.70;;;;;;;21.61;99.31;100936.04;1682543;85;21111;-72
2022/06/19 02:32:42;;;;;;;14.68;9.78;;;;;;;21.86;98.48;100935.27;1679910;85;21094;-72
2022/06/19 02:35:20;;;;;;;14.20;9.78;;;;;;;21.96;97.29;100934.38;1678394;84;21079;-71
2022/06/19 02:37:54;;;;;;;12.37;9.63;;;;;;;21.92;97.45;100937.40;1681081;84;21008;-70
2022/06/19 02:40:56;;;;;;;13.48;9.28;;;;;;;21.97;97.64;100945.20;1679292;84;21080;-69
2022/06/19 02:43:28;;;;;;;14.43;10.20;;;;;;;22.18;95.73;100942.54;1682094;84;21521;-69
2022/06/19 02:45:58;;;;;;;18.27;13.18;;;;;;;22.21;95.20;100948.81;1651526;85;21543;-72
2022/06/19 02:48:29;;;;;;;17.85;12.55;;;;;;;22.21;95.24;100952.75;1681556;84;21036;-72
2022/06/19 02:51:02;;;;;;;17.98;13.68;;;;;;;22.23;96.10;100950.49;1680561;85;21597;-72
2022/06/19 02:53:31;;;;;;;18.00;13.85;;;;;;;22.31;95.20;100955.94;1682144;84;21594;-72
2022/06/19 02:55:58;;;;;;;20.80;14.43;;;;;;;22.25;95.61;100955.16;1649919;86;21068;-72
2022/06/19 02:58:25;;;;;;;23.52;14.58;;;;;;;22.42;95.28;100951.87;1683423;84;21063;-72
2022/06/19 03:00:52;;;;;;;27.40;16.48;;;;;;;22.52;94.65;100955.84;1683331;84;21012;-72
2022/06/19 03:03:28;;;;;;;26.00;15.98;;;;;;;22.56;94.74;100954.61;1683658;84;21084;-72
2022/06/19 03:05:55;;;;;;;24.92;16.45;;;;;;;22.84;93.41;100958.25;1681454;84;21170;-72
2022/06/19 03:08:22;;;;;;;21.57;15.38;;;;;;;22.79;93.67;100949.98;1689721;84;21431;-72
2022/06/19 03:10:50;;;;;;;23.35;17.10;;;;;;;22.58;95.04;100953.50;1654429;86;21098;-70
2022/06/19 03:13:21;;;;;;;20.37;15.15;;;;;;;22.69;95.63;100947.33;1685707;84;21511;-70
2022/06/19 03:16:04;;;;;;;19.98;15.72;;;;;;;22.83;95.21;100950.05;1678332;84;21134;-69
2022/06/19 03:18:31;;;;;;;20.95;15.08;;;;;;;22.95;94.77;100950.72;1658395;86;21527;-70
2022/06/19 03:20:59;;;;;;;21.77;14.35;;;;;;;23.03;94.24;100947.45;1687734;83;21047;-69
2022/06/19 03:23:28;;;;;;;19.65;13.58;;;;;;;23.17;93.67;100947.03;1686590;83;21004;-70
2022/06/19 03:25:56;;;;;;;17.60;13.20;;;;;;;22.99;94.83;100952.96;1679714;85;21092;-70
2022/06/19 03:28:24;;;;;;;20.25;13.83;;;;;;;22.99;95.99;100953.42;1690580;84;21102;-70
2022/06/19 03:30:56;;;;;;;15.75;12.88;;;;;;;22.97;95.99;100954.89;1688484;84;21134;-69
2022/06/19 03:33:25;;;;;;;17.92;13.32;;;;;;;23.15;95.79;100955.05;1652496;85;21075;-70
2022/06/19 03:35:53;;;;;;;18.92;13.68;;;;;;;23.19;96.32;100960.39;1680987;84;21060;-69
2022/06/19 03:38:22;;;;;;;18.15;13.88;;;;;;;23.33;96.60;100961.74;1683048;84;21082;-70
2022/06/19 03:40:51;;;;;;;17.30;14.35;;;;;;;23.31;96.67;100966.30;1683383;84;21523;-70
2022/06/19 03:43:18;;;;;;;17.85;13.28;;;;;;;23.30;97.51;100962.53;1651525;86;21532;-70
2022/06/19 03:45:45;;;;;;;15.30;13.10;;;;;;;23.39;97.85;100968.24;1688205;84;21045;-70
2022/06/19 03:48:13;;;;;;;17.50;13.83;;;;;;;23.39;99.45;100970.38;1681868;84;21705;-70
2022/06/19 03:50:41;;;;;;;17.50;13.50;;;;;;;23.68;98.33;100973.47;1679083;84;21013;-69
2022/06/19 03:53:09;;;;;;;14.93;13.25;;;;;;;23.95;97.12;100970.09;1645911;86;21048;-70
2022/06/19 03:55:37;;;;;;;16.30;13.75;;;;;;;24.09;96.80;100975.87;1628178;86;21477;-70
2022/06/19 03:58:05;;;;;;;16.05;14.33;;;;;;;24.12;97.08;100976.89;1629046;87;21036;-70
2022/06/19 04:00:32;;;;;;;17.62;14.07;;;;;;;24.36;96.90;100977.69;1628647;86;21075;-70
2022/06/19 04:03:00;;;;;;;15.90;12.95;;;;;;;24.27;97.24;100988.61;1626993;87;21072;-70
2022/06/19 04:05:27;;;;;;;19.07;13.78;;;;;;;24.47;97.36;100987.17;1628586;87;21107;-69
2022/06/19 04:07:54;;;;;;;21.37;15.20;;;;;;;24.81;96.62;100994.50;1682764;84;21591;-70
2022/06/19 04:10:23;;;;;;;17.73;14.33;;;;;;;24.77;96.77;100996.59;1645711;86;21056;-69
2022/06/19 04:12:51;;;;;;;18.50;14.65;;;;;;;25.18;96.10;100996.52;1623523;86;21547;-70
2022/06/19 04:15:19;;;;;;;17.37;13.83;;;;;;;25.22;95.73;100997.55;1684281;84;21607;-70
2022/06/19 04:17:48;;;;;;;18.40;14.35;;;;;;;25.51;94.98;100992.86;1650840;86;21059;-69
2022/06/19 04:20:15;;;;;;;21.93;13.98;;;;;;;25.65;93.28;100993.27;1680181;84;21575;-69
2022/06/19 04:22:44;;;;;;;20.82;14.05;;;;;;;25.72;93.98;100996.95;1682462;84;21091;-70
2022/06/19 04:25:13;;;;;;;17.50;13.65;;;;;;;25.81;93.27;100988.09;1677086;84;21044;-70
2022/06/19 04:27:43;;;;;;;20.27;14.30;;;;;;;26.01;92.83;100991.38;1690438;83;21012;-70
2022/06/19 04:30:13;;;;;;;18.75;14.78;;;;;;;25.97;92.88;100992.67;1684303;84;21072;-70
2022/06/19 04:32:40;;;;;;;17.90;14.25;;;;;;;26.22;91.54;100987.52;1690728;84;21087;-70
2022/06/19 04:35:09;;;;;;;18.60;13.98;;;;;;;26.47;90.68;100991.10;1655070;86;21512;-70
2022/06/19 04:37:41;;;;;;;19.92;13.50;;;;;;;26.43;90.55;100986.63;1627955;87;21101;-70
2022/06/19 04:40:09;;;;;;;19.00;12.73;;;;;;;26.70;89.69;100990.03;1627435;87;21059;-70
2022/06/19 04:42:36;;;;;;;17.90;13.70;;;;;;;26.67;89.17;100991.69;1642906;86;21024;-70
2022/06/19 04:45:06;;;;;;;16.77;12.73;;;;;;;26.61;90.08;100985.73;1625785;87;21097;-70
2022/06/19 04:47:34;;;;;;;17.82;13.68;;;;;;;26.79;88.88;100987.75;1626583;87;21542;-70
2022/06/19 04:50:01;;;;;;;15.95;12.85;;;;;;;26.81;88.60;100992.88;1628661;87;21103;-70
2022/06/19 04:52:28;;;;;;;18.62;13.22;;;;;;;26.91;88.16;100994.38;1630403;86;21099;-70
2022/06/19 04:54:55;;;;;;;19.30;13.08;;;;;;;26.95;88.24;100998.84;1631859;87;21211;-70
2022/06/19 04:57:24;;;;;;;20.70;13.40;;;;;;;27.28;86.49;101002.86;1678256;84;20993;-70
2022/06/19 04:59:52;;;;;;;17.50;13.03;;;;;;;27.38;86.84;101003.52;1655641;85;21056;-70
2022/06/19 05:02:19;;;;;;;17.48;12.63;;;;;;;27.52;84.49;101000.20;1694369;83;21023;-70
2022/06/19 05:04:51;;;;;;;17.05;13.28;;;;;;;27.64;84.39;101007.31;1654845;86;21087;-70
2022/06/19 05:07:18;;;;;;;18.57;12.58;;;;;;;27.86;84.14;101005.78;1681855;84;21119;-70
2022/06/19 05:09:46;;;;;;;17.45;13.08;;;;;;;28.03;82.52;101005.77;1681103;84;21139;-70
2022/06/19 05:12:16;;;;;;;16.67;12.68;;;;;;;28.05;81.16;101007.25;1655835;86;21059;-70
2022/06/19 05:14:45;;;;;;;17.25;12.20;;;;;;;28.13;81.39;101004.57;1623640;88;21083;-70
2022/06/19 05:17:14;;;;;;;19.23;12.70;;;;;;;28.30;81.34;101008.48;1680162;84;21056;-70
2022/06/19 05:19:43;;;;;;;18.02;12.20;;;;;;;28.19;79.73;101007.04;1679035;85;21587;-72
2022/06/19 05:22:10;;;;;;;15.68;11.63;;;;;;;28.28;79.81;101009.15;1646133;86;21520;-72
2022/06/19 05:24:38;;;;;;;17.42;11.75;;;;;;;28.47;78.51;101014.04;1679284;84;21075;-72
2022/06/19 05:27:09;;;;;;;15.88;11.68;;;;;;;28.50;77.72;101015.03;1648599;86;21024;-72
2022/06/19 05:29:38;;;;;;;14.03;11.28;;;;;;;28.66;77.39;101013.31;1680736;84;21046;-72
2022/06/19 05:32:06;;;;;;;16.25;11.63;;;;;;;28.74;77.07;101014.08;1676490;84;21067;-72
2022/06/19 05:34:36;;;;;;;13.53;10.53;;;;;;;28.89;75.75;101011.53;1684725;85;21100;-72
2022/06/19 05:37:04;;;;;;;14.38;10.75;;;;;;;28.98;74.85;101015.45;1679766;84;21028;-71
2022/06/19 05:39:32;;;;;;;16.23;10.72;;;;;;;29.13;74.61;101012.37;1678709;84;21088;-72
2022/06/19 05:41:59;;;;;;;11.73;10.45;;;;;;;29.22;74.35;101014.45;1661067;86;21076;-72
2022/06/19 05:44:28;;;;;;;13.83;9.75;;;;;;;29.43;73.10;101015.12;1629654;87;21095;-72
2022/06/19 05:46:55;;;;;;;14.83;10.65;;;;;;;29.49;72.75;101021.03;1630699;86;21019;-71
2022/06/19 05:49:22;;;;;;;12.05;10.23;;;;;;;29.52;71.82;101018.01;1629280;87;21064;-72
2022/06/19 05:51:50;;;;;;;12.82;9.73;;;;;;;29.61;71.14;101019.59;1629442;87;21118;-72
2022/06/19 05:54:17;;;;;;;12.93;9.73;;;;;;;29.69;71.53;101020.84;1631340;87;21040;-72
2022/06/19 05:56:45;;;;;;;10.82;9.30;;;;;;;29.65;70.47;101020.88;1628731;87;21071;-73
2022/06/19 05:59:12;;;;;;;12.20;9.25;;;;;;;29.58;69.40;101020.45;1630113;87;21177;-72
2022/06/19 06:01:40;;;;;;;12.78;9.13;;;;;;;29.79;70.06;101018.47;1693914;83;21051;-73
2022/06/19 06:04:08;;;;;;;14.05;9.38;;;;;;;30.05;69.89;101017.52;1683380;83;21020;-73
2022/06/19 06:06:35;;;;;;;13.28;8.88;;;;;;;30.22;67.65;101024.78;1690708;84;21590;-73
2022/06/19 06:09:03;;;;;;;11.93;8.73;;;;;;;30.04;66.69;101019.83;1691338;83;21594;-72
2022/06/19 06:11:30;;;;;;;11.15;8.40;;;;;;;30.39;66.15;101018.78;1692785;84;21078;-72
2022/06/19 06:13:58;;;;;;;9.83;8.50;;;;;;;30.36;66.08;101019.16;1692511;83;21075;-72
2022/06/19 06:16:25;;;;;;;9.93;7.87;;;;;;;30.56;66.72;101014.09;1691566;83;21175;-72
2022/06/19 06:18:52;;;;;;;9.05;7.87;;;;;;;30.55;66.45;101013.76;1661840;85;21107;-72
2022/06/19 06:21:22;;;;;;;10.80;8.30;;;;;;;30.65;66.01;101010.81;1689857;83;21075;-72
2022/06/19 06:23:51;;;;;;;10.60;8.20;;;;;;;30.71;65.59;101008.73;1691597;83;21172;-72
2022/06/19 06:26:26;;;;;;;8.08;7.28;;;;;;;30.88;64.46;101010.17;1685569;83;21040;-73
2022/06/19 06:28:56;;;;;;;11.88;7.85;;;;;;;30.96;64.98;101006.55;1689534;83;21064;-72
2022/06/19 06:31:24;;;;;;;10.28;6.95;;;;;;;31.08;61.67;101002.87;1691171;83;21658;-73
2022/06/19 06:33:51;;;;;;;12.68;6.90;;;;;;;31.34;60.78;100999.11;1688519;83;21075;-73
2022/06/19 06:36:20;;;;;;;10.58;7.55;;;;;;;31.34;60.78;100999.11;1687341;83;21151;-72
2022/06/19 06:38:47;;;;;;;8.18;6.87;;;;;;;31.50;61.19;101002.55;1687531;83;21059;-72
2022/06/19 06:41:15;;;;;;;8.63;6.70;;;;;;;31.79;59.50;101005.48;1685865;83;21091;-72
2022/06/19 06:43:44;;;;;;;7.00;6.30;;;;;;;31.91;59.43;101003.11;1691183;84;21079;-73
2022/06/19 06:46:18;;;;;;;7.55;6.20;;;;;;;32.20;59.06;101008.73;1687154;83;21523;-72
2022/06/19 06:48:47;;;;;;;7.90;6.30;;;;;;;32.38;57.46;101007.34;1688272;83;21048;-73
2022/06/19 06:51:18;;;;;;;7.50;6.45;;;;;;;32.50;58.17;101007.92;1690574;84;21606;-72
2022/06/19 06:53:46;;;;;;;8.50;6.35;;;;;;;32.60;57.36;101004.06;1690736;84;21041;-73
2022/06/19 06:56:13;;;;;;;7.33;6.10;;;;;;;32.68;55.71;101003.36;1693409;83;21059;-73
2022/06/19 06:58:40;;;;;;;7.95;6.80;;;;;;;32.93;56.39;101002.30;1692940;84;21018;-73
2022/06/19 07:01:16;;;;;;;6.85;6.00;;;;;;;32.97;56.88;100998.72;1692498;84;21054;-70
2022/06/19 07:03:46;;;;;;;9.53;5.87;;;;;;;33.06;56.16;101008.66;1695140;83;21148;-72
2022/06/19 07:06:14;;;;;;;10.88;5.87;;;;;;;33.08;54.53;101005.28;1694958;83;21107;-72
2022/06/19 07:08:41;;;;;;;6.35;5.08;;;;;;;33.10;54.35;101005.93;1689398;83;21082;-73
2022/06/19 07:11:20;;;;;;;7.42;4.97;;;;;;;33.18;52.04;101007.06;1691825;84;21028;-72
2022/06/19 07:13:47;;;;;;;11.05;5.08;;;;;;;33.36;52.12;101004.30;1686046;84;21043;-71
2022/06/19 07:16:14;;;;;;;6.10;5.00;;;;;;;33.46;49.16;101004.70;1685113;83;21149;-72
2022/06/19 07:18:44;;;;;;;10.70;5.60;;;;;;;33.53;49.60;101010.83;1687458;84;21559;-72
2022/06/19 07:21:13;;;;;;;8.83;6.22;;;;;;;33.88;48.59;101006.58;1687207;83;21035;-73
2022/06/19 07:23:40;;;;;;;9.75;6.92;;;;;;;33.48;51.37;101004.79;1684698;84;21623;-72
2022/06/19 07:26:11;;;;;;;8.23;6.70;;;;;;;33.47;52.48;101007.13;1688440;83;21079;-72
2022/06/19 07:28:40;;;;;;;9.58;6.45;;;;;;;33.22;51.42;101018.96;1688011;84;21062;-72
2022/06/19 07:31:10;;;;;;;8.00;6.50;;;;;;;32.87;52.18;101012.97;1691150;84;21081;-72
2022/06/19 07:33:38;;;;;;;8.60;6.60;;;;;;;32.23;53.15;101017.64;1688747;83;21068;-73
2022/06/19 07:36:17;;;;;;;10.08;7.10;;;;;;;32.34;53.88;101016.24;1691318;83;21555;-73
2022/06/19 07:38:45;;;;;;;7.97;7.20;;;;;;;32.78;52.85;101014.98;1694478;83;21082;-73
2022/06/19 07:41:12;;;;;;;8.33;7.10;;;;;;;32.88;51.84;101017.26;1691886;84;21122;-72
2022/06/19 07:43:43;;;;;;;9.30;7.25;;;;;;;32.91;52.54;101013.67;1691320;84;21055;-71
2022/06/19 07:46:10;;;;;;;10.43;7.15;;;;;;;32.67;51.51;101016.40;1688779;83;21531;-73
2022/06/19 07:51:29;;;;;;;11.78;6.95;;;;;;;33.06;50.37;101014.00;1685036;83;21190;-71
2022/06/19 07:53:56;;;;;;;8.43;6.80;;;;;;;33.35;51.13;101015.98;1682622;83;21084;-72
2022/06/19 07:56:24;;;;;;;9.73;6.50;;;;;;;33.55;50.94;101019.97;1691564;83;22478;-72
2022/06/19 07:58:51;;;;;;;10.00;6.78;;;;;;;33.87;49.51;101017.78;1689499;83;21068;-73
2022/06/19 08:01:18;;;;;;;8.53;6.67;;;;;;;33.80;49.21;101017.00;1693208;84;20984;-72
2022/06/19 08:03:46;;;;;;;8.08;6.10;;;;;;;34.11;47.68;101022.95;1692090;84;21224;-72
2022/06/19 08:06:15;;;;;;;6.08;5.50;;;;;;;34.59;48.59;101014.23;1688454;84;21193;-73
2022/06/19 08:08:43;;;;;;;8.40;5.60;;;;;;;34.45;47.88;101018.33;1689367;83;21119;-72
2022/06/19 08:11:10;;;;;;;6.03;5.30;;;;;;;34.56;48.28;101012.00;1690637;84;21602;-72
2022/06/19 08:13:39;;;;;;;8.35;6.17;;;;;;;34.94;46.79;101018.67;1692266;84;21047;-72
2022/06/19 08:16:09;;;;;;;7.90;6.08;;;;;;;35.34;45.87;101021.57;1692411;84;21063;-72
2022/06/19 08:18:39;;;;;;;7.62;6.33;;;;;;;34.77;45.37;101014.88;1692757;84;21060;-72
2022/06/19 08:21:07;;;;;;;8.68;6.50;;;;;;;34.89;45.59;101011.28;1690879;83;21091;-72
2022/06/19 08:23:35;;;;;;;12.45;7.00;;;;;;;34.88;46.60;101011.52;1692760;83;21077;-72
2022/06/19 08:26:03;;;;;;;10.08;6.95;;;;;;;34.17;46.07;101010.64;1689745;83;21051;-72
2022/06/19 08:30:58;;;;;;;7.53;6.58;;;;;;;34.31;46.03;101010.07;1688899;84;21543;-72
2022/06/19 08:33:25;;;;;;;9.93;7.10;;;;;;;34.49;46.29;101007.51;1689948;84;21000;-72
2022/06/19 08:35:56;;;;;;;9.65;6.87;;;;;;;34.70;46.22;101001.03;1687050;83;21063;-73
2022/06/19 08:38:31;;;;;;;8.05;6.28;;;;;;;34.82;45.10;101005.70;1683586;83;21591;-72
2022/06/19 08:41:19;;;;;;;8.63;7.53;;;;;;;34.93;44.79;101010.86;1691691;84;21007;-72
2022/06/19 08:44:42;;;;;;;11.85;7.72;;;;;;;34.60;44.90;101003.84;1687577;84;21547;-71
2022/06/19 08:47:29;;;;;;;8.20;7.08;;;;;;;34.63;45.30;100991.38;1633571;86;21134;-73
2022/06/19 08:50:10;;;;;;;8.88;7.00;;;;;;;34.49;46.25;101004.83;1693122;83;21043;-71
2022/06/19 08:53:25;;;;;;;8.10;6.90;;;;;;;34.43;45.09;101003.51;1681134;83;21067;-72
2022/06/19 08:56:03;;;;;;;9.13;7.72;;;;;;;34.21;45.95;100993.15;1690550;83;21599;-72
2022/06/19 08:58:48;;;;;;;7.97;6.50;;;;;;;34.63;45.34;100991.38;1689811;83;21075;-73
2022/06/19 09:01:32;;;;;;;8.08;7.10;;;;;;;34.09;45.77;100991.62;1695895;84;21042;-73
2022/06/19 09:07:04;;;;;;;7.65;6.55;;;;;;;34.37;45.58;100991.84;1615515;84;21075;-72
2022/06/19 09:09:56;;;;;;;10.93;6.83;;;;;;;34.77;44.63;100986.79;1692771;84;21044;-71
2022/06/19 09:12:44;;;;;;;9.05;7.15;;;;;;;34.80;44.34;100990.39;1694801;84;21036;-72
2022/06/19 09:15:17;;;;;;;8.08;6.72;;;;;;;34.47;43.74;100990.86;1688642;84;21096;-72
2022/06/19 09:17:58;;;;;;;9.68;7.28;;;;;;;34.57;43.25;100994.91;1681664;83;21019;-72
2022/06/19 09:20:46;;;;;;;8.60;7.25;;;;;;;34.86;42.23;100993.00;1670288;83;21090;-72
2022/06/19 09:23:56;;;;;;;8.63;6.33;;;;;;;35.28;43.86;100991.98;1673662;84;21099;-73
2022/06/19 09:26:50;;;;;;;7.53;6.72;;;;;;;35.69;43.23;100991.91;1653188;85;21063;-72
2022/06/19 09:29:35;;;;;;;7.37;6.60;;;;;;;35.73;43.64;100979.40;1650529;85;21102;-73
2022/06/19 09:32:10;;;;;;;9.28;6.60;;;;;;;36.19;43.67;100983.41;1653043;85;21077;-72
2022/06/19 09:35:05;;;;;;;8.28;6.90;;;;;;;36.21;42.96;100979.45;1648322;85;21055;-74
2022/06/19 09:38:05;;;;;;;9.00;6.90;;;;;;;36.17;42.48;100982.30;1605190;87;21068;-73
2022/06/19 09:40:38;;;;;;;13.55;11.05;;;;;;;36.11;41.72;100985.84;1645116;86;21139;-73
2022/06/19 09:43:14;;;;;;;19.92;17.85;;;;;;;35.78;42.27;100987.06;1648594;85;21074;-73
2022/06/19 09:45:56;;;;;;;9.23;8.33;;;;;;;35.75;42.42;100984.85;1648240;86;21114;-72
2022/06/19 09:48:47;;;;;;;7.67;6.10;;;;;;;35.17;42.08;100980.64;1640279;86;21035;-71
2022/06/19 09:51:33;;;;;;;6.70;5.85;;;;;;;34.85;43.16;100977.98;1630278;86;21146;-73
2022/06/19 09:54:17;;;;;;;7.55;6.62;;;;;;;35.03;42.82;100973.73;1636684;86;21547;-71
2022/06/19 09:56:55;;;;;;;6.75;6.10;;;;;;;35.09;42.13;100976.34;1637248;86;21079;-73
2022/06/19 09:59:58;;;;;;;7.90;6.20;;;;;;;35.04;41.85;100972.72;1636559;86;21015;-72
2022/06/19 10:02:49;;;;;;;9.85;6.62;;;;;;;35.14;43.11;100977.05;1642621;86;21031;-74
2022/06/19 10:05:40;;;;;;;7.22;6.30;;;;;;;34.92;42.07;100967.25;1647392;85;21102;-72
2022/06/19 10:08:43;;;;;;;8.03;6.33;;;;;;;34.81;42.31;100970.09;1649136;85;21662;-73
2022/06/19 10:11:15;;;;;;;7.58;6.47;;;;;;;35.00;41.36;100960.78;1686495;84;21099;-72
2022/06/19 10:14:04;;;;;;;6.62;6.03;;;;;;;34.75;43.38;100955.44;1650291;86;21099;-73
2022/06/19 10:17:03;;;;;;;8.35;5.67;;;;;;;35.15;43.87;100951.10;1663637;84;21028;-72
2022/06/19 10:19:47;;;;;;;6.97;5.75;;;;;;;35.26;41.08;100956.59;1655827;86;21086;-73
2022/06/19 10:22:54;;;;;;;8.03;5.70;;;;;;;35.03;41.17;100951.80;1630255;86;21150;-73
2022/06/19 10:25:41;;;;;;;7.78;5.10;;;;;;;34.85;40.45;100957.10;1614578;87;21055;-72
2022/06/19 10:28:33;;;;;;;5.53;5.08;;;;;;;34.99;39.31;100961.84;1621902;86;21071;-73
2022/06/19 10:31:18;;;;;;;5.83;5.23;;;;;;;35.11;40.13;100952.05;1629251;87;21112;-72
2022/06/19 10:34:17;;;;;;;5.37;4.87;;;;;;;35.27;40.42;100953.39;1613012;88;21352;-72
2022/06/19 10:36:50;;;;;;;6.00;4.65;;;;;;;35.24;39.90;100952.47;1670854;84;21532;-73
2022/06/19 10:39:39;;;;;;;6.10;4.75;;;;;;;35.38;38.59;100947.81;1679509;85;22243;-73
2022/06/19 10:42:21;;;;;;;6.60;4.58;;;;;;;35.50;39.71;100944.70;1618590;87;21195;-72
2022/06/19 10:45:22;;;;;;;6.90;4.78;;;;;;;35.64;39.66;100947.52;1680896;84;21598;-72
2022/06/19 10:48:10;;;;;;;5.37;4.50;;;;;;;35.45;39.46;100945.91;1680556;85;21083;-72
2022/06/19 10:51:10;;;;;;;6.35;5.67;;;;;;;35.24;38.72;100935.92;1677792;83;21079;-72
2022/06/19 10:54:10;;;;;;;8.85;6.20;;;;;;;35.47;41.07;100933.92;1678963;84;21103;-72
2022/06/19 10:57:12;;;;;;;7.58;6.75;;;;;;;36.02;40.40;100935.77;1680983;85;21044;-72
2022/06/19 10:59:39;;;;;;;5.62;4.65;;;;;;;36.39;41.42;100941.06;1681472;85;21591;-73
2022/06/19 11:05:29;;;;;;;7.75;6.47;;;;;;;37.10;39.30;100949.25;1679439;84;22309;-71
2022/06/19 11:07:57;;;;;;;3.95;3.55;;;;;;;37.03;39.57;100944.01;1685578;83;21225;-72
2022/06/19 11:10:44;;;;;;;5.25;3.85;;;;;;;37.04;36.94;100944.81;1692927;83;21024;-73
2022/06/19 11:13:12;;;;;;;4.92;4.53;;;;;;;36.92;37.06;100939.44;1688043;84;21107;-72
2022/06/19 11:15:48;;;;;;;4.15;3.75;;;;;;;36.48;38.36;100935.68;1685863;83;21548;-73
2022/06/19 11:18:20;;;;;;;4.25;3.90;;;;;;;36.72;36.50;100934.93;1686521;83;21741;-73
2022/06/19 11:20:59;;;;;;;5.55;5.05;;;;;;;36.69;37.02;100932.19;1677183;83;21060;-72
2022/06/19 11:23:38;;;;;;;6.10;4.90;;;;;;;36.66;36.92;100934.82;1674908;84;21067;-72
2022/06/19 11:26:16;;;;;;;5.67;4.95;;;;;;;36.81;36.54;100934.36;1665592;84;21055;-73
2022/06/19 11:29:16;;;;;;;6.10;5.42;;;;;;;36.06;36.99;100927.58;1672550;84;21020;-72
2022/06/19 11:32:11;;;;;;;6.90;5.42;;;;;;;36.48;37.13;100926.30;1659716;84;21036;-72
2022/06/19 11:34:44;;;;;;;6.97;4.20;;;;;;;36.50;36.98;100928.75;1672338;84;21075;-72
2022/06/19 11:37:25;;;;;;;6.55;4.40;;;;;;;35.88;35.98;100935.65;1670772;83;21003;-71
2022/06/19 11:40:02;;;;;;;5.37;3.90;;;;;;;36.39;35.85;100926.84;1681163;83;21607;-72
2022/06/19 11:42:40;;;;;;;4.65;4.15;;;;;;;36.46;34.67;100927.05;1666844;84;21110;-72
2022/06/19 11:45:16;;;;;;;5.10;3.70;;;;;;;36.52;36.08;100920.45;1662732;83;21059;-72
2022/06/19 11:47:58;;;;;;;4.42;3.70;;;;;;;36.52;35.97;100924.48;1672518;85;22164;-74
2022/06/19 11:50:42;;;;;;;5.42;3.80;;;;;;;36.53;35.39;100924.78;1690426;84;21086;-73
2022/06/19 11:53:30;;;;;;;4.65;3.70;;;;;;;36.74;35.85;100928.81;1693128;84;21035;-73
2022/06/19 11:56:34;;;;;;;5.45;4.33;;;;;;;36.59;36.48;100929.23;1689338;84;21122;-73
2022/06/19 11:59:26;;;;;;;5.22;3.50;;;;;;;37.13;36.37;100919.80;1688094;84;21040;-72